sensor_id;sensor_type;location;lat;lon;timestamp;temperature;humidity
66596;SHT31;59017;49.252;18.838;2022-09-02T00:00:50;22.07;42.10
66596;SHT31;59017;49.252;18.838;2022-09-02T00:03:17;22.14;41.90
66596;SHT31;59017;49.252;18.838;2022-09-02T00:05:44;22.10;41.82
66596;SHT31;59017;49.252;18.838;2022-09-02T00:08:10;22.17;42.00
66596;SHT31;59017;49.252;18.838;2022-09-02T00:10:38;22.21;41.85
66596;SHT31;59017;49.252;18.838;2022-09-02T00:13:06;22.13;41.71
66596;SHT31;59017;49.252;18.838;2022-09-02T00:15:32;22.17;41.76
66596;SHT31;59017;49.252;18.838;2022-09-02T00:17:59;21.76;42.27
66596;SHT31;59017;49.252;18.838;2022-09-02T00:20:26;22.00;42.81
66596;SHT31;59017;49.252;18.838;2022-09-02T00:22:52;21.99;42.64
66596;SHT31;59017;49.252;18.838;2022-09-02T00:25:17;22.02;42.24
66596;SHT31;59017;49.252;18.838;2022-09-02T00:27:43;22.07;42.46
66596;SHT31;59017;49.252;18.838;2022-09-02T00:30:09;22.10;42.77
66596;SHT31;59017;49.252;18.838;2022-09-02T00:32:35;22.02;42.64
66596;SHT31;59017;49.252;18.838;2022-09-02T00:35:00;22.13;42.88
66596;SHT31;59017;49.252;18.838;2022-09-02T00:37:26;21.97;42.81
66596;SHT31;59017;49.252;18.838;2022-09-02T00:39:52;22.04;42.80
66596;SHT31;59017;49.252;18.838;2022-09-02T00:42:21;22.06;42.52
66596;SHT31;59017;49.252;18.838;2022-09-02T00:44:47;22.17;43.06
66596;SHT31;59017;49.252;18.838;2022-09-02T00:47:13;22.16;42.93
66596;SHT31;59017;49.252;18.838;2022-09-02T00:49:41;22.21;42.94
66596;SHT31;59017;49.252;18.838;2022-09-02T00:52:29;22.25;42.88
66596;SHT31;59017;49.252;18.838;2022-09-02T00:55:05;22.29;43.07
66596;SHT31;59017;49.252;18.838;2022-09-02T00:57:44;22.25;43.15
66596;SHT31;59017;49.252;18.838;2022-09-02T01:02:44;22.17;43.02
66596;SHT31;59017;49.252;18.838;2022-09-02T01:05:13;22.16;43.40
66596;SHT31;59017;49.252;18.838;2022-09-02T01:07:40;22.18;42.94
66596;SHT31;59017;49.252;18.838;2022-09-02T01:10:09;22.09;42.82
66596;SHT31;59017;49.252;18.838;2022-09-02T01:12:35;22.02;43.14
66596;SHT31;59017;49.252;18.838;2022-09-02T01:15:01;22.14;43.07
66596;SHT31;59017;49.252;18.838;2022-09-02T01:17:28;22.20;42.98
66596;SHT31;59017;49.252;18.838;2022-09-02T01:20:02;22.10;42.86
66596;SHT31;59017;49.252;18.838;2022-09-02T01:22:30;22.04;43.29
66596;SHT31;59017;49.252;18.838;2022-09-02T01:25:00;22.12;43.29
66596;SHT31;59017;49.252;18.838;2022-09-02T01:27:28;22.17;43.56
66596;SHT31;59017;49.252;18.838;2022-09-02T01:29:56;22.20;43.72
66596;SHT31;59017;49.252;18.838;2022-09-02T01:32:22;22.23;43.75
66596;SHT31;59017;49.252;18.838;2022-09-02T01:34:49;22.12;43.25
66596;SHT31;59017;49.252;18.838;2022-09-02T01:37:15;21.93;44.31
66596;SHT31;59017;49.252;18.838;2022-09-02T01:39:40;22.12;43.86
66596;SHT31;59017;49.252;18.838;2022-09-02T01:42:06;22.16;43.76
66596;SHT31;59017;49.252;18.838;2022-09-02T01:44:34;22.17;43.87
66596;SHT31;59017;49.252;18.838;2022-09-02T01:47:02;21.83;44.40
66596;SHT31;59017;49.252;18.838;2022-09-02T01:49:28;21.99;43.95
66596;SHT31;59017;49.252;18.838;2022-09-02T01:51:54;22.02;43.79
66596;SHT31;59017;49.252;18.838;2022-09-02T01:54:20;22.09;43.87
66596;SHT31;59017;49.252;18.838;2022-09-02T01:56:45;22.14;43.75
66596;SHT31;59017;49.252;18.838;2022-09-02T01:59:11;22.10;43.36
66596;SHT31;59017;49.252;18.838;2022-09-02T02:01:42;21.90;43.75
66596;SHT31;59017;49.252;18.838;2022-09-02T02:04:09;21.96;43.74
66596;SHT31;59017;49.252;18.838;2022-09-02T02:06:34;21.71;43.55
66596;SHT31;59017;49.252;18.838;2022-09-02T02:09:00;21.42;44.25
66596;SHT31;59017;49.252;18.838;2022-09-02T02:11:25;21.49;44.47
66596;SHT31;59017;49.252;18.838;2022-09-02T02:13:51;21.46;44.19
66596;SHT31;59017;49.252;18.838;2022-09-02T02:16:17;21.48;44.30
66596;SHT31;59017;49.252;18.838;2022-09-02T02:18:42;21.63;44.59
66596;SHT31;59017;49.252;18.838;2022-09-02T02:21:08;21.78;44.53
66596;SHT31;59017;49.252;18.838;2022-09-02T02:23:33;21.73;44.60
66596;SHT31;59017;49.252;18.838;2022-09-02T02:25:59;21.51;44.57
66596;SHT31;59017;49.252;18.838;2022-09-02T02:28:25;21.72;44.66
66596;SHT31;59017;49.252;18.838;2022-09-02T02:30:51;21.55;44.41
66596;SHT31;59017;49.252;18.838;2022-09-02T02:33:16;21.45;44.83
66596;SHT31;59017;49.252;18.838;2022-09-02T02:35:42;21.45;44.52
66596;SHT31;59017;49.252;18.838;2022-09-02T02:38:07;21.63;44.49
66596;SHT31;59017;49.252;18.838;2022-09-02T02:40:35;21.79;44.21
66596;SHT31;59017;49.252;18.838;2022-09-02T02:43:01;21.82;44.14
66596;SHT31;59017;49.252;18.838;2022-09-02T02:45:26;21.78;44.21
66596;SHT31;59017;49.252;18.838;2022-09-02T02:47:52;21.78;44.70
66596;SHT31;59017;49.252;18.838;2022-09-02T02:50:20;21.56;44.35
66596;SHT31;59017;49.252;18.838;2022-09-02T02:52:46;21.37;44.87
66596;SHT31;59017;49.252;18.838;2022-09-02T02:55:13;21.51;45.57
66596;SHT31;59017;49.252;18.838;2022-09-02T02:57:40;21.73;44.90
66596;SHT31;59017;49.252;18.838;2022-09-02T03:00:19;21.89;44.65
66596;SHT31;59017;49.252;18.838;2022-09-02T03:02:45;21.90;44.54
66596;SHT31;59017;49.252;18.838;2022-09-02T03:05:13;21.92;44.73
66596;SHT31;59017;49.252;18.838;2022-09-02T03:07:39;21.90;44.72
66596;SHT31;59017;49.252;18.838;2022-09-02T03:10:06;21.69;44.39
66596;SHT31;59017;49.252;18.838;2022-09-02T03:12:36;21.65;44.62
66596;SHT31;59017;49.252;18.838;2022-09-02T03:15:04;21.45;44.69
66596;SHT31;59017;49.252;18.838;2022-09-02T03:17:30;21.35;44.99
66596;SHT31;59017;49.252;18.838;2022-09-02T03:19:55;21.30;44.67
66596;SHT31;59017;49.252;18.838;2022-09-02T03:22:24;21.54;44.59
66596;SHT31;59017;49.252;18.838;2022-09-02T03:24:50;21.71;44.59
66596;SHT31;59017;49.252;18.838;2022-09-02T03:27:16;21.79;44.40
66596;SHT31;59017;49.252;18.838;2022-09-02T03:29:41;21.75;44.00
66596;SHT31;59017;49.252;18.838;2022-09-02T03:32:08;21.69;44.53
66596;SHT31;59017;49.252;18.838;2022-09-02T03:34:34;21.62;44.58
66596;SHT31;59017;49.252;18.838;2022-09-02T03:36:59;21.62;44.25
66596;SHT31;59017;49.252;18.838;2022-09-02T03:39:25;21.21;45.35
66596;SHT31;59017;49.252;18.838;2022-09-02T03:41:50;21.32;45.23
66596;SHT31;59017;49.252;18.838;2022-09-02T03:44:17;21.56;44.91
66596;SHT31;59017;49.252;18.838;2022-09-02T03:46:42;21.71;44.72
66596;SHT31;59017;49.252;18.838;2022-09-02T03:49:07;21.78;44.23
66596;SHT31;59017;49.252;18.838;2022-09-02T03:51:34;21.83;44.60
66596;SHT31;59017;49.252;18.838;2022-09-02T03:53:59;21.88;44.46
66596;SHT31;59017;49.252;18.838;2022-09-02T03:56:28;21.92;44.51
66596;SHT31;59017;49.252;18.838;2022-09-02T03:58:53;21.85;44.17
66596;SHT31;59017;49.252;18.838;2022-09-02T04:01:23;21.90;44.52
66596;SHT31;59017;49.252;18.838;2022-09-02T04:03:49;21.82;44.06
66596;SHT31;59017;49.252;18.838;2022-09-02T04:06:16;21.66;44.56
66596;SHT31;59017;49.252;18.838;2022-09-02T04:08:43;21.69;45.05
66596;SHT31;59017;49.252;18.838;2022-09-02T04:11:11;21.67;44.76
66596;SHT31;59017;49.252;18.838;2022-09-02T04:13:37;21.82;44.67
66596;SHT31;59017;49.252;18.838;2022-09-02T04:16:11;21.86;44.67
66596;SHT31;59017;49.252;18.838;2022-09-02T04:18:37;21.93;44.54
66596;SHT31;59017;49.252;18.838;2022-09-02T04:21:03;21.93;44.60
66596;SHT31;59017;49.252;18.838;2022-09-02T04:23:29;21.73;43.65
66596;SHT31;59017;49.252;18.838;2022-09-02T04:25:54;21.67;45.15
66596;SHT31;59017;49.252;18.838;2022-09-02T04:28:20;21.54;44.79
66596;SHT31;59017;49.252;18.838;2022-09-02T04:30:46;21.63;45.23
66596;SHT31;59017;49.252;18.838;2022-09-02T04:33:12;21.75;45.03
66596;SHT31;59017;49.252;18.838;2022-09-02T04:35:45;21.75;44.23
66596;SHT31;59017;49.252;18.838;2022-09-02T04:38:13;21.69;44.58
66596;SHT31;59017;49.252;18.838;2022-09-02T04:40:40;21.78;44.83
66596;SHT31;59017;49.252;18.838;2022-09-02T04:43:06;21.85;43.97
66596;SHT31;59017;49.252;18.838;2022-09-02T04:45:32;21.86;44.90
66596;SHT31;59017;49.252;18.838;2022-09-02T04:47:57;21.88;44.68
66596;SHT31;59017;49.252;18.838;2022-09-02T04:50:23;21.85;44.80
66596;SHT31;59017;49.252;18.838;2022-09-02T04:52:48;21.73;44.96
66596;SHT31;59017;49.252;18.838;2022-09-02T04:55:14;21.79;44.35
66596;SHT31;59017;49.252;18.838;2022-09-02T04:57:39;21.83;44.33
66596;SHT31;59017;49.252;18.838;2022-09-02T05:00:06;21.67;44.30
66596;SHT31;59017;49.252;18.838;2022-09-02T05:02:32;21.63;44.76
66596;SHT31;59017;49.252;18.838;2022-09-02T05:04:58;21.51;44.44
66596;SHT31;59017;49.252;18.838;2022-09-02T05:07:23;21.42;44.39
66596;SHT31;59017;49.252;18.838;2022-09-02T05:09:49;21.38;44.72
66596;SHT31;59017;49.252;18.838;2022-09-02T05:12:15;21.27;44.68
66596;SHT31;59017;49.252;18.838;2022-09-02T05:14:41;21.25;44.48
66596;SHT31;59017;49.252;18.838;2022-09-02T05:17:07;21.25;44.61
66596;SHT31;59017;49.252;18.838;2022-09-02T05:19:33;21.38;44.93
66596;SHT31;59017;49.252;18.838;2022-09-02T05:21:59;21.48;44.02
66596;SHT31;59017;49.252;18.838;2022-09-02T05:24:26;21.37;44.84
66596;SHT31;59017;49.252;18.838;2022-09-02T05:26:52;21.32;44.55
66596;SHT31;59017;49.252;18.838;2022-09-02T05:29:18;21.27;44.06
66596;SHT31;59017;49.252;18.838;2022-09-02T05:31:45;21.56;44.91
66596;SHT31;59017;49.252;18.838;2022-09-02T05:34:12;21.72;44.31
66596;SHT31;59017;49.252;18.838;2022-09-02T05:36:37;21.75;43.32
66596;SHT31;59017;49.252;18.838;2022-09-02T05:39:03;21.66;43.87
66596;SHT31;59017;49.252;18.838;2022-09-02T05:41:29;21.79;43.43
66596;SHT31;59017;49.252;18.838;2022-09-02T05:43:57;21.89;43.65
66596;SHT31;59017;49.252;18.838;2022-09-02T05:46:24;22.03;43.40
66596;SHT31;59017;49.252;18.838;2022-09-02T05:48:51;22.21;43.17
66596;SHT31;59017;49.252;18.838;2022-09-02T05:54:02;22.25;42.21
66596;SHT31;59017;49.252;18.838;2022-09-02T05:56:28;22.23;42.12
66596;SHT31;59017;49.252;18.838;2022-09-02T05:58:55;22.16;42.89
66596;SHT31;59017;49.252;18.838;2022-09-02T06:01:21;22.31;42.77
66596;SHT31;59017;49.252;18.838;2022-09-02T06:03:47;22.14;42.92
66596;SHT31;59017;49.252;18.838;2022-09-02T06:06:13;22.27;42.15
66596;SHT31;59017;49.252;18.838;2022-09-02T06:08:38;22.36;42.59
66596;SHT31;59017;49.252;18.838;2022-09-02T06:11:08;22.24;41.61
66596;SHT31;59017;49.252;18.838;2022-09-02T06:13:36;22.41;42.51
66596;SHT31;59017;49.252;18.838;2022-09-02T06:16:02;22.34;41.61
66596;SHT31;59017;49.252;18.838;2022-09-02T06:18:28;22.40;42.22
66596;SHT31;59017;49.252;18.838;2022-09-02T06:20:54;22.45;41.92
66596;SHT31;59017;49.252;18.838;2022-09-02T06:23:19;22.43;41.19
66596;SHT31;59017;49.252;18.838;2022-09-02T06:25:47;22.54;42.53
66596;SHT31;59017;49.252;18.838;2022-09-02T06:28:13;22.65;41.99
66596;SHT31;59017;49.252;18.838;2022-09-02T06:30:41;22.71;41.70
66596;SHT31;59017;49.252;18.838;2022-09-02T06:33:08;22.79;42.13
66596;SHT31;59017;49.252;18.838;2022-09-02T06:35:39;22.82;41.69
66596;SHT31;59017;49.252;18.838;2022-09-02T06:38:06;22.86;41.97
66596;SHT31;59017;49.252;18.838;2022-09-02T06:40:31;22.89;41.75
66596;SHT31;59017;49.252;18.838;2022-09-02T06:42:57;22.91;40.95
66596;SHT31;59017;49.252;18.838;2022-09-02T06:45:22;22.92;40.93
66596;SHT31;59017;49.252;18.838;2022-09-02T06:47:49;23.00;41.51
66596;SHT31;59017;49.252;18.838;2022-09-02T06:50:15;23.00;41.65
66596;SHT31;59017;49.252;18.838;2022-09-02T06:52:41;23.03;41.61
66596;SHT31;59017;49.252;18.838;2022-09-02T06:55:07;23.06;41.03
66596;SHT31;59017;49.252;18.838;2022-09-02T06:57:32;23.06;41.09
66596;SHT31;59017;49.252;18.838;2022-09-02T06:59:58;23.06;40.56
66596;SHT31;59017;49.252;18.838;2022-09-02T07:02:23;23.06;41.07
66596;SHT31;59017;49.252;18.838;2022-09-02T07:04:49;23.10;41.22
66596;SHT31;59017;49.252;18.838;2022-09-02T07:07:35;23.12;41.54
66596;SHT31;59017;49.252;18.838;2022-09-02T07:10:00;23.16;41.47
66596;SHT31;59017;49.252;18.838;2022-09-02T07:12:26;23.15;41.58
66596;SHT31;59017;49.252;18.838;2022-09-02T07:14:52;23.16;41.22
66596;SHT31;59017;49.252;18.838;2022-09-02T07:17:18;23.20;41.41
66596;SHT31;59017;49.252;18.838;2022-09-02T07:19:46;23.20;40.94
66596;SHT31;59017;49.252;18.838;2022-09-02T07:22:12;23.23;41.20
66596;SHT31;59017;49.252;18.838;2022-09-02T07:24:38;23.23;41.36
66596;SHT31;59017;49.252;18.838;2022-09-02T07:27:03;23.23;40.30
66596;SHT31;59017;49.252;18.838;2022-09-02T07:29:30;23.26;40.80
66596;SHT31;59017;49.252;18.838;2022-09-02T07:31:56;23.22;40.60
66596;SHT31;59017;49.252;18.838;2022-09-02T07:34:21;23.27;41.04
66596;SHT31;59017;49.252;18.838;2022-09-02T07:36:47;23.19;40.39
66596;SHT31;59017;49.252;18.838;2022-09-02T07:39:13;23.20;39.61
66596;SHT31;59017;49.252;18.838;2022-09-02T07:41:41;23.13;39.61
66596;SHT31;59017;49.252;18.838;2022-09-02T07:44:07;23.17;40.22
66596;SHT31;59017;49.252;18.838;2022-09-02T07:46:33;23.22;40.31
66596;SHT31;59017;49.252;18.838;2022-09-02T07:49:00;23.20;39.76
66596;SHT31;59017;49.252;18.838;2022-09-02T07:51:28;23.22;39.81
66596;SHT31;59017;49.252;18.838;2022-09-02T07:53:53;23.26;39.95
66596;SHT31;59017;49.252;18.838;2022-09-02T07:56:19;23.27;40.55
66596;SHT31;59017;49.252;18.838;2022-09-02T07:58:45;23.26;40.43
66596;SHT31;59017;49.252;18.838;2022-09-02T08:01:11;23.27;40.35
66596;SHT31;59017;49.252;18.838;2022-09-02T08:03:39;23.28;40.30
66596;SHT31;59017;49.252;18.838;2022-09-02T08:06:06;23.19;39.09
66596;SHT31;59017;49.252;18.838;2022-09-02T08:08:32;23.22;40.43
66596;SHT31;59017;49.252;18.838;2022-09-02T08:10:58;23.05;37.81
66596;SHT31;59017;49.252;18.838;2022-09-02T08:13:24;23.15;38.03
66596;SHT31;59017;49.252;18.838;2022-09-02T08:15:49;23.00;37.88
66596;SHT31;59017;49.252;18.838;2022-09-02T08:18:15;22.96;38.73
66596;SHT31;59017;49.252;18.838;2022-09-02T08:20:40;22.91;38.01
66596;SHT31;59017;49.252;18.838;2022-09-02T08:23:06;22.99;36.74
66596;SHT31;59017;49.252;18.838;2022-09-02T08:25:34;22.86;37.45
66596;SHT31;59017;49.252;18.838;2022-09-02T08:27:59;22.92;37.81
66596;SHT31;59017;49.252;18.838;2022-09-02T08:30:25;22.99;37.41
66596;SHT31;59017;49.252;18.838;2022-09-02T08:32:51;22.91;36.12
66596;SHT31;59017;49.252;18.838;2022-09-02T08:35:16;22.86;36.19
66596;SHT31;59017;49.252;18.838;2022-09-02T08:37:42;22.78;37.16
66596;SHT31;59017;49.252;18.838;2022-09-02T08:40:14;22.78;35.36
66596;SHT31;59017;49.252;18.838;2022-09-02T08:42:45;22.75;35.55
66596;SHT31;59017;49.252;18.838;2022-09-02T08:45:19;22.67;36.02
66596;SHT31;59017;49.252;18.838;2022-09-02T08:47:59;22.69;36.28
66596;SHT31;59017;49.252;18.838;2022-09-02T08:50:26;22.71;36.39
66596;SHT31;59017;49.252;18.838;2022-09-02T08:53:16;22.76;36.68
66596;SHT31;59017;49.252;18.838;2022-09-02T08:55:52;22.81;36.52
66596;SHT31;59017;49.252;18.838;2022-09-02T08:58:28;22.76;35.90
66596;SHT31;59017;49.252;18.838;2022-09-02T09:04:03;22.79;35.90
66596;SHT31;59017;49.252;18.838;2022-09-02T09:12:54;22.76;36.75
66596;SHT31;59017;49.252;18.838;2022-09-02T09:15:47;22.79;36.68
66596;SHT31;59017;49.252;18.838;2022-09-02T09:18:15;22.81;36.72
66596;SHT31;59017;49.252;18.838;2022-09-02T09:20:42;22.67;36.30
66596;SHT31;59017;49.252;18.838;2022-09-02T09:23:24;22.55;36.16
66596;SHT31;59017;49.252;18.838;2022-09-02T09:25:56;22.57;36.56
66596;SHT31;59017;49.252;18.838;2022-09-02T09:28:23;22.57;35.67
66596;SHT31;59017;49.252;18.838;2022-09-02T09:30:49;22.45;36.37
66596;SHT31;59017;49.252;18.838;2022-09-02T09:33:17;22.54;36.63
66596;SHT31;59017;49.252;18.838;2022-09-02T09:35:48;22.62;36.49
66596;SHT31;59017;49.252;18.838;2022-09-02T09:38:16;22.69;36.64
66596;SHT31;59017;49.252;18.838;2022-09-02T09:41:15;22.76;36.26
66596;SHT31;59017;49.252;18.838;2022-09-02T09:43:42;22.69;36.28
66596;SHT31;59017;49.252;18.838;2022-09-02T09:46:25;22.69;35.91
66596;SHT31;59017;49.252;18.838;2022-09-02T09:48:52;22.65;36.36
66596;SHT31;59017;49.252;18.838;2022-09-02T09:51:18;22.76;36.65
66596;SHT31;59017;49.252;18.838;2022-09-02T09:53:44;22.73;36.30
66596;SHT31;59017;49.252;18.838;2022-09-02T10:01:33;22.71;36.95
66596;SHT31;59017;49.252;18.838;2022-09-02T10:04:04;22.71;37.11
66596;SHT31;59017;49.252;18.838;2022-09-02T10:09:24;22.81;37.06
66596;SHT31;59017;49.252;18.838;2022-09-02T10:12:13;22.81;36.17
66596;SHT31;59017;49.252;18.838;2022-09-02T10:14:46;22.81;36.07
66596;SHT31;59017;49.252;18.838;2022-09-02T10:31:15;22.82;36.07
66596;SHT31;59017;49.252;18.838;2022-09-02T10:34:30;22.79;37.11
66596;SHT31;59017;49.252;18.838;2022-09-02T10:41:46;22.75;36.78
66596;SHT31;59017;49.252;18.838;2022-09-02T10:47:00;22.78;36.89
66596;SHT31;59017;49.252;18.838;2022-09-02T10:50:03;22.81;36.63
66596;SHT31;59017;49.252;18.838;2022-09-02T10:52:47;22.78;36.34
66596;SHT31;59017;49.252;18.838;2022-09-02T10:55:27;22.72;36.20
66596;SHT31;59017;49.252;18.838;2022-09-02T10:58:12;22.68;35.94
66596;SHT31;59017;49.252;18.838;2022-09-02T11:00:40;22.69;36.14
66596;SHT31;59017;49.252;18.838;2022-09-02T11:03:32;22.75;36.08
66596;SHT31;59017;49.252;18.838;2022-09-02T11:06:08;22.76;35.59
66596;SHT31;59017;49.252;18.838;2022-09-02T11:08:58;22.79;36.09
66596;SHT31;59017;49.252;18.838;2022-09-02T11:11:31;22.82;35.94
66596;SHT31;59017;49.252;18.838;2022-09-02T11:19:38;22.88;35.35
66596;SHT31;59017;49.252;18.838;2022-09-02T11:25:06;22.84;35.87
66596;SHT31;59017;49.252;18.838;2022-09-02T11:27:40;22.88;35.72
66596;SHT31;59017;49.252;18.838;2022-09-02T11:30:15;22.88;35.86
66596;SHT31;59017;49.252;18.838;2022-09-02T11:35:36;22.91;35.71
66596;SHT31;59017;49.252;18.838;2022-09-02T11:38:35;22.94;35.83
66596;SHT31;59017;49.252;18.838;2022-09-02T11:41:27;22.99;36.01
66596;SHT31;59017;49.252;18.838;2022-09-02T11:44:11;23.00;35.22
66596;SHT31;59017;49.252;18.838;2022-09-02T11:53:09;23.09;35.79
66596;SHT31;59017;49.252;18.838;2022-09-02T11:55:41;23.07;35.85
66596;SHT31;59017;49.252;18.838;2022-09-02T11:58:07;23.09;35.61
66596;SHT31;59017;49.252;18.838;2022-09-02T12:00:57;23.10;35.73
66596;SHT31;59017;49.252;18.838;2022-09-02T12:03:25;23.12;35.28
66596;SHT31;59017;49.252;18.838;2022-09-02T12:06:16;23.12;35.05
66596;SHT31;59017;49.252;18.838;2022-09-02T12:11:37;23.09;35.23
66596;SHT31;59017;49.252;18.838;2022-09-02T12:14:07;23.10;35.78
66596;SHT31;59017;49.252;18.838;2022-09-02T12:16:40;23.07;34.86
66596;SHT31;59017;49.252;18.838;2022-09-02T12:22:37;23.12;35.11
66596;SHT31;59017;49.252;18.838;2022-09-02T12:36:02;23.19;35.67
66596;SHT31;59017;49.252;18.838;2022-09-02T12:38:36;23.15;35.28
66596;SHT31;59017;49.252;18.838;2022-09-02T12:43:54;23.19;35.89
66596;SHT31;59017;49.252;18.838;2022-09-02T12:49:04;23.20;35.62
66596;SHT31;59017;49.252;18.838;2022-09-02T12:51:56;23.17;34.75
66596;SHT31;59017;49.252;18.838;2022-09-02T12:57:01;23.19;35.70
66596;SHT31;59017;49.252;18.838;2022-09-02T12:59:38;23.20;35.46
66596;SHT31;59017;49.252;18.838;2022-09-02T13:07:41;23.07;34.79
66596;SHT31;59017;49.252;18.838;2022-09-02T13:16:38;22.98;35.03
66596;SHT31;59017;49.252;18.838;2022-09-02T13:19:26;22.92;35.79
66596;SHT31;59017;49.252;18.838;2022-09-02T13:27:51;23.00;35.48
66596;SHT31;59017;49.252;18.838;2022-09-02T13:30:29;22.96;36.00
66596;SHT31;59017;49.252;18.838;2022-09-02T13:33:08;23.03;35.58
66596;SHT31;59017;49.252;18.838;2022-09-02T13:35:38;22.99;35.84
66596;SHT31;59017;49.252;18.838;2022-09-02T13:38:08;23.02;35.27
66596;SHT31;59017;49.252;18.838;2022-09-02T13:40:36;22.99;35.39
66596;SHT31;59017;49.252;18.838;2022-09-02T13:45:40;23.03;35.78
66596;SHT31;59017;49.252;18.838;2022-09-02T13:48:09;22.99;35.94
66596;SHT31;59017;49.252;18.838;2022-09-02T13:50:35;23.05;35.90
66596;SHT31;59017;49.252;18.838;2022-09-02T13:53:04;23.00;35.67
66596;SHT31;59017;49.252;18.838;2022-09-02T13:55:32;22.98;36.04
66596;SHT31;59017;49.252;18.838;2022-09-02T13:58:01;22.99;35.76
66596;SHT31;59017;49.252;18.838;2022-09-02T14:00:35;22.92;36.10
66596;SHT31;59017;49.252;18.838;2022-09-02T14:03:15;22.84;36.24
66596;SHT31;59017;49.252;18.838;2022-09-02T14:05:43;22.91;36.15
66596;SHT31;59017;49.252;18.838;2022-09-02T14:08:15;22.91;36.55
66596;SHT31;59017;49.252;18.838;2022-09-02T14:10:42;22.98;36.45
66596;SHT31;59017;49.252;18.838;2022-09-02T14:13:09;23.02;36.44
66596;SHT31;59017;49.252;18.838;2022-09-02T14:15:35;23.00;36.07
66596;SHT31;59017;49.252;18.838;2022-09-02T14:18:16;23.00;36.45
66596;SHT31;59017;49.252;18.838;2022-09-02T14:21:03;23.02;36.30
66596;SHT31;59017;49.252;18.838;2022-09-02T14:23:37;23.03;36.62
66596;SHT31;59017;49.252;18.838;2022-09-02T14:26:04;22.96;36.54
66596;SHT31;59017;49.252;18.838;2022-09-02T14:28:32;22.91;36.55
66596;SHT31;59017;49.252;18.838;2022-09-02T14:31:01;22.96;36.71
66596;SHT31;59017;49.252;18.838;2022-09-02T14:33:40;22.94;36.79
66596;SHT31;59017;49.252;18.838;2022-09-02T14:43:43;22.88;37.32
66596;SHT31;59017;49.252;18.838;2022-09-02T14:51:37;22.72;37.95
66596;SHT31;59017;49.252;18.838;2022-09-02T14:54:03;22.61;37.81
66596;SHT31;59017;49.252;18.838;2022-09-02T14:56:47;22.59;38.05
66596;SHT31;59017;49.252;18.838;2022-09-02T14:59:13;22.69;38.18
66596;SHT31;59017;49.252;18.838;2022-09-02T15:01:44;22.71;38.07
66596;SHT31;59017;49.252;18.838;2022-09-02T15:04:12;22.71;38.13
66596;SHT31;59017;49.252;18.838;2022-09-02T15:06:38;22.69;38.18
66596;SHT31;59017;49.252;18.838;2022-09-02T15:09:03;22.76;38.42
66596;SHT31;59017;49.252;18.838;2022-09-02T15:11:29;22.71;38.39
66596;SHT31;59017;49.252;18.838;2022-09-02T15:13:54;22.71;38.65
66596;SHT31;59017;49.252;18.838;2022-09-02T15:16:20;22.75;38.50
66596;SHT31;59017;49.252;18.838;2022-09-02T15:18:45;22.73;38.53
66596;SHT31;59017;49.252;18.838;2022-09-02T15:21:11;22.76;38.57
66596;SHT31;59017;49.252;18.838;2022-09-02T15:23:36;22.65;38.40
66596;SHT31;59017;49.252;18.838;2022-09-02T15:26:05;22.57;38.64
66596;SHT31;59017;49.252;18.838;2022-09-02T15:28:31;22.59;38.82
66596;SHT31;59017;49.252;18.838;2022-09-02T15:30:57;22.64;38.37
66596;SHT31;59017;49.252;18.838;2022-09-02T15:33:23;22.62;38.45
66596;SHT31;59017;49.252;18.838;2022-09-02T15:35:49;22.71;38.59
66596;SHT31;59017;49.252;18.838;2022-09-02T15:38:14;22.73;38.47
66596;SHT31;59017;49.252;18.838;2022-09-02T15:40:40;22.76;38.67
66596;SHT31;59017;49.252;18.838;2022-09-02T15:43:05;22.65;38.45
66596;SHT31;59017;49.252;18.838;2022-09-02T15:45:31;22.62;38.61
66596;SHT31;59017;49.252;18.838;2022-09-02T15:47:57;22.47;38.84
66596;SHT31;59017;49.252;18.838;2022-09-02T15:50:23;22.47;38.81
66596;SHT31;59017;49.252;18.838;2022-09-02T15:52:49;22.58;38.82
66596;SHT31;59017;49.252;18.838;2022-09-02T15:55:14;22.62;39.52
66596;SHT31;59017;49.252;18.838;2022-09-02T15:57:40;22.62;39.54
66596;SHT31;59017;49.252;18.838;2022-09-02T16:00:06;22.62;39.59
66596;SHT31;59017;49.252;18.838;2022-09-02T16:02:32;22.68;39.64
66596;SHT31;59017;49.252;18.838;2022-09-02T16:04:58;22.72;39.18
66596;SHT31;59017;49.252;18.838;2022-09-02T16:07:23;22.68;38.98
66596;SHT31;59017;49.252;18.838;2022-09-02T16:09:49;22.71;39.21
66596;SHT31;59017;49.252;18.838;2022-09-02T16:12:14;22.68;39.35
66596;SHT31;59017;49.252;18.838;2022-09-02T16:14:40;22.65;39.22
66596;SHT31;59017;49.252;18.838;2022-09-02T16:17:07;22.64;39.09
66596;SHT31;59017;49.252;18.838;2022-09-02T16:19:34;22.73;39.43
66596;SHT31;59017;49.252;18.838;2022-09-02T16:21:59;22.75;39.45
66596;SHT31;59017;49.252;18.838;2022-09-02T16:24:26;22.76;39.23
66596;SHT31;59017;49.252;18.838;2022-09-02T16:26:52;22.78;39.17
66596;SHT31;59017;49.252;18.838;2022-09-02T16:29:18;22.81;39.58
66596;SHT31;59017;49.252;18.838;2022-09-02T16:31:45;22.75;39.33
66596;SHT31;59017;49.252;18.838;2022-09-02T16:34:13;22.62;39.62
66596;SHT31;59017;49.252;18.838;2022-09-02T16:36:41;22.73;39.41
66596;SHT31;59017;49.252;18.838;2022-09-02T16:39:08;22.75;39.29
66596;SHT31;59017;49.252;18.838;2022-09-02T16:41:39;22.64;39.27
66596;SHT31;59017;49.252;18.838;2022-09-02T16:44:13;22.67;39.44
66596;SHT31;59017;49.252;18.838;2022-09-02T16:46:40;22.68;39.81
66596;SHT31;59017;49.252;18.838;2022-09-02T16:49:09;22.71;39.52
66596;SHT31;59017;49.252;18.838;2022-09-02T16:51:36;22.51;39.42
66596;SHT31;59017;49.252;18.838;2022-09-02T16:54:05;22.51;39.29
66596;SHT31;59017;49.252;18.838;2022-09-02T16:56:32;22.61;39.35
66596;SHT31;59017;49.252;18.838;2022-09-02T16:59:00;22.65;39.38
66596;SHT31;59017;49.252;18.838;2022-09-02T17:01:27;22.55;39.70
66596;SHT31;59017;49.252;18.838;2022-09-02T17:03:52;22.62;39.81
66596;SHT31;59017;49.252;18.838;2022-09-02T17:06:18;22.52;39.96
66596;SHT31;59017;49.252;18.838;2022-09-02T17:08:44;22.54;40.06
66596;SHT31;59017;49.252;18.838;2022-09-02T17:13:44;22.21;40.44
66596;SHT31;59017;49.252;18.838;2022-09-02T17:16:09;22.37;40.10
66596;SHT31;59017;49.252;18.838;2022-09-02T17:18:36;22.43;40.16
66596;SHT31;59017;49.252;18.838;2022-09-02T17:23:35;22.39;40.55
66596;SHT31;59017;49.252;18.838;2022-09-02T17:26:01;22.16;40.52
66596;SHT31;59017;49.252;18.838;2022-09-02T17:28:26;22.25;40.89
66596;SHT31;59017;49.252;18.838;2022-09-02T17:30:52;22.24;40.29